sensor_id;sensor_type;location;lat;lon;timestamp;P1;durP1;ratioP1;P2;durP2;ratioP2
78169;SDS011;67412;49.892;14.490;2024-02-16T00:01:17;34.38;;;6.85;;
78169;SDS011;67412;49.892;14.490;2024-02-16T00:03:42;47.90;;;6.50;;
78169;SDS011;67412;49.892;14.490;2024-02-16T00:06:07;50.83;;;7.85;;
78169;SDS011;67412;49.892;14.490;2024-02-16T00:08:33;29.80;;;6.65;;
78169;SDS011;67412;49.892;14.490;2024-02-16T00:10:59;53.20;;;7.88;;
78169;SDS011;67412;49.892;14.490;2024-02-16T00:13:25;15.23;;;6.32;;
78169;SDS011;67412;49.892;14.490;2024-02-16T00:15:50;18.02;;;6.30;;
78169;SDS011;67412;49.892;14.490;2024-02-16T00:18:15;16.88;;;6.70;;
78169;SDS011;67412;49.892;14.490;2024-02-16T00:20:41;15.98;;;6.97;;
78169;SDS011;67412;49.892;14.490;2024-02-16T00:23:06;42.55;;;8.77;;
78169;SDS011;67412;49.892;14.490;2024-02-16T00:25:32;43.97;;;8.98;;
78169;SDS011;67412;49.892;14.490;2024-02-16T00:27:59;35.58;;;9.23;;
78169;SDS011;67412;49.892;14.490;2024-02-16T00:30:24;39.88;;;8.48;;
78169;SDS011;67412;49.892;14.490;2024-02-16T00:32:50;41.15;;;9.00;;
78169;SDS011;67412;49.892;14.490;2024-02-16T00:35:15;45.40;;;8.68;;
78169;SDS011;67412;49.892;14.490;2024-02-16T00:37:44;85.38;;;11.60;;
78169;SDS011;67412;49.892;14.490;2024-02-16T00:40:10;126.93;;;13.27;;
78169;SDS011;67412;49.892;14.490;2024-02-16T00:42:36;110.78;;;12.93;;
78169;SDS011;67412;49.892;14.490;2024-02-16T00:45:02;114.75;;;15.25;;
78169;SDS011;67412;49.892;14.490;2024-02-16T00:47:28;62.95;;;10.48;;
78169;SDS011;67412;49.892;14.490;2024-02-16T00:49:54;58.80;;;9.15;;
78169;SDS011;67412;49.892;14.490;2024-02-16T00:52:19;73.22;;;10.25;;
78169;SDS011;67412;49.892;14.490;2024-02-16T00:54:45;74.63;;;10.05;;
78169;SDS011;67412;49.892;14.490;2024-02-16T00:57:11;59.67;;;7.68;;
78169;SDS011;67412;49.892;14.490;2024-02-16T00:59:39;59.55;;;8.30;;
78169;SDS011;67412;49.892;14.490;2024-02-16T01:02:04;45.08;;;8.00;;
78169;SDS011;67412;49.892;14.490;2024-02-16T01:04:30;37.15;;;7.53;;
78169;SDS011;67412;49.892;14.490;2024-02-16T01:06:55;34.13;;;6.70;;
78169;SDS011;67412;49.892;14.490;2024-02-16T01:09:21;29.08;;;6.90;;
78169;SDS011;67412;49.892;14.490;2024-02-16T01:11:46;27.65;;;6.38;;
78169;SDS011;67412;49.892;14.490;2024-02-16T01:14:12;30.05;;;6.75;;
78169;SDS011;67412;49.892;14.490;2024-02-16T01:16:37;31.15;;;6.20;;
78169;SDS011;67412;49.892;14.490;2024-02-16T01:19:03;37.47;;;8.45;;
78169;SDS011;67412;49.892;14.490;2024-02-16T01:21:28;19.17;;;5.90;;
78169;SDS011;67412;49.892;14.490;2024-02-16T01:23:53;39.40;;;6.93;;
78169;SDS011;67412;49.892;14.490;2024-02-16T01:26:19;81.75;;;10.32;;
78169;SDS011;67412;49.892;14.490;2024-02-16T01:28:44;147.25;;;16.63;;
78169;SDS011;67412;49.892;14.490;2024-02-16T01:31:10;44.20;;;8.18;;
78169;SDS011;67412;49.892;14.490;2024-02-16T01:33:35;66.32;;;10.15;;
78169;SDS011;67412;49.892;14.490;2024-02-16T01:36:02;102.03;;;12.65;;
78169;SDS011;67412;49.892;14.490;2024-02-16T01:38:28;53.63;;;10.63;;
78169;SDS011;67412;49.892;14.490;2024-02-16T01:40:53;30.77;;;8.13;;
78169;SDS011;67412;49.892;14.490;2024-02-16T01:43:19;18.90;;;7.75;;
78169;SDS011;67412;49.892;14.490;2024-02-16T01:45:45;20.15;;;7.70;;
78169;SDS011;67412;49.892;14.490;2024-02-16T01:48:10;25.38;;;9.20;;
78169;SDS011;67412;49.892;14.490;2024-02-16T01:50:36;17.52;;;7.88;;
78169;SDS011;67412;49.892;14.490;2024-02-16T01:53:01;43.17;;;8.40;;
78169;SDS011;67412;49.892;14.490;2024-02-16T01:55:26;46.85;;;9.20;;
78169;SDS011;67412;49.892;14.490;2024-02-16T01:57:52;68.45;;;10.10;;
78169;SDS011;67412;49.892;14.490;2024-02-16T02:00:17;28.75;;;7.80;;
78169;SDS011;67412;49.892;14.490;2024-02-16T02:02:44;32.13;;;7.72;;
78169;SDS011;67412;49.892;14.490;2024-02-16T02:05:11;32.20;;;6.78;;
78169;SDS011;67412;49.892;14.490;2024-02-16T02:07:37;47.38;;;9.10;;
78169;SDS011;67412;49.892;14.490;2024-02-16T02:10:03;60.35;;;9.63;;
78169;SDS011;67412;49.892;14.490;2024-02-16T02:12:28;74.47;;;10.05;;
78169;SDS011;67412;49.892;14.490;2024-02-16T02:14:53;27.35;;;7.50;;
78169;SDS011;67412;49.892;14.490;2024-02-16T02:17:19;28.63;;;7.70;;
78169;SDS011;67412;49.892;14.490;2024-02-16T02:19:45;60.08;;;9.73;;
78169;SDS011;67412;49.892;14.490;2024-02-16T02:22:17;39.38;;;8.60;;
78169;SDS011;67412;49.892;14.490;2024-02-16T02:24:44;21.00;;;7.18;;
78169;SDS011;67412;49.892;14.490;2024-02-16T02:27:10;47.70;;;9.70;;
78169;SDS011;67412;49.892;14.490;2024-02-16T02:29:36;95.25;;;13.68;;
78169;SDS011;67412;49.892;14.490;2024-02-16T02:32:01;37.72;;;8.63;;
78169;SDS011;67412;49.892;14.490;2024-02-16T02:34:27;49.40;;;9.48;;
78169;SDS011;67412;49.892;14.490;2024-02-16T02:36:52;59.40;;;9.00;;
78169;SDS011;67412;49.892;14.490;2024-02-16T02:39:18;94.78;;;11.05;;
78169;SDS011;67412;49.892;14.490;2024-02-16T02:41:43;88.63;;;11.15;;
78169;SDS011;67412;49.892;14.490;2024-02-16T02:44:09;36.42;;;8.15;;
78169;SDS011;67412;49.892;14.490;2024-02-16T02:46:34;29.88;;;7.47;;
78169;SDS011;67412;49.892;14.490;2024-02-16T02:49:00;78.28;;;13.20;;
78169;SDS011;67412;49.892;14.490;2024-02-16T02:51:25;20.92;;;6.63;;
78169;SDS011;67412;49.892;14.490;2024-02-16T02:53:52;17.35;;;7.03;;
78169;SDS011;67412;49.892;14.490;2024-02-16T02:56:17;19.58;;;7.65;;
78169;SDS011;67412;49.892;14.490;2024-02-16T02:58:43;19.60;;;8.70;;
78169;SDS011;67412;49.892;14.490;2024-02-16T03:01:08;23.35;;;8.57;;
78169;SDS011;67412;49.892;14.490;2024-02-16T03:03:34;20.45;;;8.20;;
78169;SDS011;67412;49.892;14.490;2024-02-16T03:05:59;24.38;;;8.30;;
78169;SDS011;67412;49.892;14.490;2024-02-16T03:08:25;24.98;;;10.00;;
78169;SDS011;67412;49.892;14.490;2024-02-16T03:10:50;19.50;;;8.85;;
78169;SDS011;67412;49.892;14.490;2024-02-16T03:13:16;24.67;;;8.32;;
78169;SDS011;67412;49.892;14.490;2024-02-16T03:15:43;80.93;;;12.13;;
78169;SDS011;67412;49.892;14.490;2024-02-16T03:20:56;71.53;;;11.43;;
78169;SDS011;67412;49.892;14.490;2024-02-16T03:23:22;19.60;;;8.00;;
78169;SDS011;67412;49.892;14.490;2024-02-16T03:25:48;24.98;;;8.63;;
78169;SDS011;67412;49.892;14.490;2024-02-16T03:28:14;22.98;;;8.95;;
78169;SDS011;67412;49.892;14.490;2024-02-16T03:30:40;19.77;;;8.10;;
78169;SDS011;67412;49.892;14.490;2024-02-16T03:33:06;21.83;;;8.80;;
78169;SDS011;67412;49.892;14.490;2024-02-16T03:35:31;20.50;;;8.30;;
78169;SDS011;67412;49.892;14.490;2024-02-16T03:37:57;21.00;;;8.82;;
78169;SDS011;67412;49.892;14.490;2024-02-16T03:40:22;22.15;;;8.77;;
78169;SDS011;67412;49.892;14.490;2024-02-16T03:42:49;48.38;;;10.05;;
78169;SDS011;67412;49.892;14.490;2024-02-16T03:45:15;65.80;;;10.90;;
78169;SDS011;67412;49.892;14.490;2024-02-16T03:47:41;67.80;;;11.55;;
78169;SDS011;67412;49.892;14.490;2024-02-16T03:50:09;81.65;;;10.93;;
78169;SDS011;67412;49.892;14.490;2024-02-16T03:52:35;117.00;;;12.50;;
78169;SDS011;67412;49.892;14.490;2024-02-16T03:55:01;86.47;;;11.88;;
78169;SDS011;67412;49.892;14.490;2024-02-16T03:57:26;86.80;;;12.95;;
78169;SDS011;67412;49.892;14.490;2024-02-16T03:59:52;97.40;;;13.50;;
78169;SDS011;67412;49.892;14.490;2024-02-16T04:02:17;111.80;;;12.52;;
78169;SDS011;67412;49.892;14.490;2024-02-16T04:04:43;81.57;;;12.63;;
78169;SDS011;67412;49.892;14.490;2024-02-16T04:07:09;87.93;;;12.20;;
78169;SDS011;67412;49.892;14.490;2024-02-16T04:09:34;49.55;;;9.38;;
78169;SDS011;67412;49.892;14.490;2024-02-16T04:12:00;23.95;;;7.63;;
78169;SDS011;67412;49.892;14.490;2024-02-16T04:14:26;19.20;;;8.20;;
78169;SDS011;67412;49.892;14.490;2024-02-16T04:16:51;21.33;;;8.15;;
78169;SDS011;67412;49.892;14.490;2024-02-16T04:19:17;18.98;;;7.97;;
78169;SDS011;67412;49.892;14.490;2024-02-16T04:21:42;19.42;;;8.15;;
78169;SDS011;67412;49.892;14.490;2024-02-16T04:24:07;23.63;;;8.43;;
78169;SDS011;67412;49.892;14.490;2024-02-16T04:26:33;23.55;;;9.25;;
78169;SDS011;67412;49.892;14.490;2024-02-16T04:28:58;21.20;;;8.15;;
78169;SDS011;67412;49.892;14.490;2024-02-16T04:31:23;20.08;;;8.27;;
78169;SDS011;67412;49.892;14.490;2024-02-16T04:33:49;20.55;;;8.48;;
78169;SDS011;67412;49.892;14.490;2024-02-16T04:36:14;112.28;;;14.70;;
78169;SDS011;67412;49.892;14.490;2024-02-16T04:38:40;93.40;;;13.18;;
78169;SDS011;67412;49.892;14.490;2024-02-16T04:41:06;44.40;;;9.80;;
78169;SDS011;67412;49.892;14.490;2024-02-16T04:43:31;118.05;;;15.20;;
78169;SDS011;67412;49.892;14.490;2024-02-16T04:45:57;88.20;;;11.65;;
78169;SDS011;67412;49.892;14.490;2024-02-16T04:48:22;137.23;;;12.90;;
78169;SDS011;67412;49.892;14.490;2024-02-16T04:50:48;89.57;;;10.57;;
78169;SDS011;67412;49.892;14.490;2024-02-16T04:53:13;69.15;;;10.02;;
78169;SDS011;67412;49.892;14.490;2024-02-16T04:55:39;67.38;;;11.10;;
78169;SDS011;67412;49.892;14.490;2024-02-16T04:58:04;62.83;;;10.10;;
78169;SDS011;67412;49.892;14.490;2024-02-16T05:00:35;66.38;;;10.18;;
78169;SDS011;67412;49.892;14.490;2024-02-16T05:03:01;72.00;;;11.07;;
78169;SDS011;67412;49.892;14.490;2024-02-16T05:05:27;48.05;;;8.20;;
78169;SDS011;67412;49.892;14.490;2024-02-16T05:07:53;52.65;;;9.18;;
78169;SDS011;67412;49.892;14.490;2024-02-16T05:10:18;53.05;;;9.07;;
78169;SDS011;67412;49.892;14.490;2024-02-16T05:12:44;52.55;;;9.70;;
78169;SDS011;67412;49.892;14.490;2024-02-16T05:15:10;23.85;;;7.22;;
78169;SDS011;67412;49.892;14.490;2024-02-16T05:17:38;21.83;;;7.78;;
78169;SDS011;67412;49.892;14.490;2024-02-16T05:20:07;21.25;;;7.90;;
78169;SDS011;67412;49.892;14.490;2024-02-16T05:22:40;19.70;;;8.38;;
78169;SDS011;67412;49.892;14.490;2024-02-16T05:25:10;22.08;;;9.50;;
78169;SDS011;67412;49.892;14.490;2024-02-16T05:27:39;22.52;;;8.45;;
78169;SDS011;67412;49.892;14.490;2024-02-16T05:30:05;29.73;;;8.77;;
78169;SDS011;67412;49.892;14.490;2024-02-16T05:32:35;19.48;;;7.55;;
78169;SDS011;67412;49.892;14.490;2024-02-16T05:35:03;23.48;;;9.45;;
78169;SDS011;67412;49.892;14.490;2024-02-16T05:37:36;42.85;;;11.18;;
78169;SDS011;67412;49.892;14.490;2024-02-16T05:40:02;25.73;;;9.32;;
78169;SDS011;67412;49.892;14.490;2024-02-16T05:42:43;24.92;;;9.32;;
78169;SDS011;67412;49.892;14.490;2024-02-16T05:45:09;24.60;;;8.77;;
78169;SDS011;67412;49.892;14.490;2024-02-16T05:47:36;23.90;;;9.23;;
78169;SDS011;67412;49.892;14.490;2024-02-16T05:50:03;26.10;;;8.82;;
78169;SDS011;67412;49.892;14.490;2024-02-16T05:52:30;20.92;;;9.10;;
78169;SDS011;67412;49.892;14.490;2024-02-16T05:54:55;21.73;;;9.18;;
78169;SDS011;67412;49.892;14.490;2024-02-16T05:57:20;23.73;;;9.27;;
78169;SDS011;67412;49.892;14.490;2024-02-16T05:59:46;21.10;;;8.57;;
78169;SDS011;67412;49.892;14.490;2024-02-16T06:02:11;23.83;;;9.10;;
78169;SDS011;67412;49.892;14.490;2024-02-16T06:04:38;25.33;;;9.65;;
78169;SDS011;67412;49.892;14.490;2024-02-16T06:07:06;20.55;;;8.30;;
78169;SDS011;67412;49.892;14.490;2024-02-16T06:09:33;23.83;;;9.00;;
78169;SDS011;67412;49.892;14.490;2024-02-16T06:12:02;27.08;;;9.80;;
78169;SDS011;67412;49.892;14.490;2024-02-16T06:14:32;23.48;;;10.10;;
78169;SDS011;67412;49.892;14.490;2024-02-16T06:16:58;26.70;;;10.35;;
78169;SDS011;67412;49.892;14.490;2024-02-16T06:19:24;26.70;;;9.82;;
78169;SDS011;67412;49.892;14.490;2024-02-16T06:21:49;24.10;;;10.82;;
78169;SDS011;67412;49.892;14.490;2024-02-16T06:24:15;32.67;;;11.65;;
78169;SDS011;67412;49.892;14.490;2024-02-16T06:26:40;43.65;;;15.50;;
78169;SDS011;67412;49.892;14.490;2024-02-16T06:29:05;41.10;;;15.25;;
78169;SDS011;67412;49.892;14.490;2024-02-16T06:31:31;47.00;;;16.20;;
78169;SDS011;67412;49.892;14.490;2024-02-16T06:33:56;40.15;;;13.05;;
78169;SDS011;67412;49.892;14.490;2024-02-16T06:36:22;43.55;;;14.07;;
78169;SDS011;67412;49.892;14.490;2024-02-16T06:38:48;42.10;;;15.45;;
78169;SDS011;67412;49.892;14.490;2024-02-16T06:41:13;42.20;;;14.18;;
78169;SDS011;67412;49.892;14.490;2024-02-16T06:43:39;40.15;;;15.27;;
78169;SDS011;67412;49.892;14.490;2024-02-16T06:46:05;61.15;;;15.15;;
78169;SDS011;67412;49.892;14.490;2024-02-16T06:48:30;63.38;;;14.82;;
78169;SDS011;67412;49.892;14.490;2024-02-16T06:50:55;51.63;;;14.27;;
78169;SDS011;67412;49.892;14.490;2024-02-16T06:53:21;30.42;;;11.35;;
78169;SDS011;67412;49.892;14.490;2024-02-16T06:55:46;24.50;;;10.65;;
78169;SDS011;67412;49.892;14.490;2024-02-16T06:58:11;24.80;;;9.43;;
78169;SDS011;67412;49.892;14.490;2024-02-16T07:00:37;26.23;;;9.82;;
78169;SDS011;67412;49.892;14.490;2024-02-16T07:03:02;26.70;;;9.52;;
78169;SDS011;67412;49.892;14.490;2024-02-16T07:05:28;24.58;;;9.73;;
78169;SDS011;67412;49.892;14.490;2024-02-16T07:07:53;26.58;;;9.70;;
78169;SDS011;67412;49.892;14.490;2024-02-16T07:10:19;27.23;;;9.52;;
78169;SDS011;67412;49.892;14.490;2024-02-16T07:12:44;26.13;;;10.38;;
78169;SDS011;67412;49.892;14.490;2024-02-16T07:15:10;29.45;;;11.80;;
78169;SDS011;67412;49.892;14.490;2024-02-16T07:17:37;28.33;;;11.55;;
78169;SDS011;67412;49.892;14.490;2024-02-16T07:20:03;28.80;;;11.68;;
78169;SDS011;67412;49.892;14.490;2024-02-16T07:22:29;30.50;;;11.75;;
78169;SDS011;67412;49.892;14.490;2024-02-16T07:24:55;21.90;;;9.88;;
78169;SDS011;67412;49.892;14.490;2024-02-16T07:27:20;27.88;;;11.02;;
78169;SDS011;67412;49.892;14.490;2024-02-16T07:29:46;32.50;;;11.23;;
78169;SDS011;67412;49.892;14.490;2024-02-16T07:32:11;31.80;;;11.98;;
78169;SDS011;67412;49.892;14.490;2024-02-16T07:34:37;33.53;;;12.85;;
78169;SDS011;67412;49.892;14.490;2024-02-16T07:37:03;48.85;;;19.70;;
78169;SDS011;67412;49.892;14.490;2024-02-16T07:39:29;61.42;;;22.40;;
78169;SDS011;67412;49.892;14.490;2024-02-16T07:41:55;45.83;;;17.25;;
78169;SDS011;67412;49.892;14.490;2024-02-16T07:44:20;40.17;;;14.65;;
78169;SDS011;67412;49.892;14.490;2024-02-16T07:46:46;34.38;;;12.57;;
78169;SDS011;67412;49.892;14.490;2024-02-16T07:49:11;27.38;;;11.43;;
78169;SDS011;67412;49.892;14.490;2024-02-16T07:51:36;27.63;;;11.35;;
78169;SDS011;67412;49.892;14.490;2024-02-16T07:54:02;33.92;;;13.65;;
78169;SDS011;67412;49.892;14.490;2024-02-16T07:56:28;38.83;;;16.10;;
78169;SDS011;67412;49.892;14.490;2024-02-16T08:01:20;38.63;;;14.27;;
78169;SDS011;67412;49.892;14.490;2024-02-16T08:03:45;33.08;;;12.60;;
78169;SDS011;67412;49.892;14.490;2024-02-16T08:06:11;30.95;;;14.05;;
78169;SDS011;67412;49.892;14.490;2024-02-16T08:08:37;34.60;;;15.82;;
78169;SDS011;67412;49.892;14.490;2024-02-16T08:11:02;38.60;;;16.52;;
78169;SDS011;67412;49.892;14.490;2024-02-16T08:13:28;31.35;;;13.50;;
78169;SDS011;67412;49.892;14.490;2024-02-16T08:15:53;49.55;;;17.35;;
78169;SDS011;67412;49.892;14.490;2024-02-16T08:18:18;32.95;;;13.48;;
78169;SDS011;67412;49.892;14.490;2024-02-16T08:20:45;29.13;;;12.00;;
78169;SDS011;67412;49.892;14.490;2024-02-16T08:23:10;30.77;;;11.35;;
78169;SDS011;67412;49.892;14.490;2024-02-16T08:25:35;23.55;;;10.35;;
78169;SDS011;67412;49.892;14.490;2024-02-16T08:28:01;26.52;;;10.18;;
78169;SDS011;67412;49.892;14.490;2024-02-16T08:30:27;29.38;;;11.00;;
78169;SDS011;67412;49.892;14.490;2024-02-16T08:32:52;30.70;;;11.23;;
78169;SDS011;67412;49.892;14.490;2024-02-16T08:35:18;26.08;;;9.57;;
78169;SDS011;67412;49.892;14.490;2024-02-16T08:37:44;26.95;;;10.52;;
78169;SDS011;67412;49.892;14.490;2024-02-16T08:40:14;27.27;;;10.95;;
78169;SDS011;67412;49.892;14.490;2024-02-16T08:42:42;24.88;;;10.63;;
78169;SDS011;67412;49.892;14.490;2024-02-16T08:45:08;26.77;;;10.07;;
78169;SDS011;67412;49.892;14.490;2024-02-16T08:47:34;26.98;;;11.10;;
78169;SDS011;67412;49.892;14.490;2024-02-16T08:49:59;24.20;;;10.88;;
78169;SDS011;67412;49.892;14.490;2024-02-16T08:52:24;25.65;;;10.57;;
78169;SDS011;67412;49.892;14.490;2024-02-16T08:54:50;24.25;;;10.00;;
78169;SDS011;67412;49.892;14.490;2024-02-16T08:57:15;27.38;;;11.32;;
78169;SDS011;67412;49.892;14.490;2024-02-16T08:59:40;24.17;;;11.07;;
78169;SDS011;67412;49.892;14.490;2024-02-16T09:02:06;28.05;;;11.77;;
78169;SDS011;67412;49.892;14.490;2024-02-16T09:04:31;26.30;;;11.65;;
78169;SDS011;67412;49.892;14.490;2024-02-16T09:06:56;24.55;;;10.48;;
78169;SDS011;67412;49.892;14.490;2024-02-16T09:09:22;27.23;;;11.05;;
78169;SDS011;67412;49.892;14.490;2024-02-16T09:11:50;28.65;;;11.90;;
78169;SDS011;67412;49.892;14.490;2024-02-16T09:14:15;29.35;;;11.98;;
78169;SDS011;67412;49.892;14.490;2024-02-16T09:16:40;27.83;;;12.27;;
78169;SDS011;67412;49.892;14.490;2024-02-16T09:19:05;28.98;;;11.82;;
78169;SDS011;67412;49.892;14.490;2024-02-16T09:21:31;27.83;;;12.05;;
78169;SDS011;67412;49.892;14.490;2024-02-16T09:23:56;25.48;;;12.13;;
78169;SDS011;67412;49.892;14.490;2024-02-16T09:26:26;25.83;;;11.27;;
78169;SDS011;67412;49.892;14.490;2024-02-16T09:28:55;27.08;;;12.20;;
78169;SDS011;67412;49.892;14.490;2024-02-16T09:31:20;25.48;;;11.48;;
78169;SDS011;67412;49.892;14.490;2024-02-16T09:33:46;30.30;;;12.27;;
78169;SDS011;67412;49.892;14.490;2024-02-16T09:36:11;27.42;;;11.98;;
78169;SDS011;67412;49.892;14.490;2024-02-16T09:38:36;26.05;;;11.23;;
78169;SDS011;67412;49.892;14.490;2024-02-16T09:41:02;24.55;;;11.93;;
78169;SDS011;67412;49.892;14.490;2024-02-16T09:43:28;29.77;;;11.52;;
78169;SDS011;67412;49.892;14.490;2024-02-16T09:45:55;25.30;;;11.70;;
78169;SDS011;67412;49.892;14.490;2024-02-16T09:48:23;23.08;;;11.18;;
78169;SDS011;67412;49.892;14.490;2024-02-16T09:50:51;27.98;;;11.95;;
78169;SDS011;67412;49.892;14.490;2024-02-16T09:53:19;23.77;;;10.52;;
78169;SDS011;67412;49.892;14.490;2024-02-16T09:55:46;28.52;;;12.27;;
78169;SDS011;67412;49.892;14.490;2024-02-16T09:58:17;24.08;;;11.45;;
78169;SDS011;67412;49.892;14.490;2024-02-16T10:03:29;25.73;;;10.90;;
78169;SDS011;67412;49.892;14.490;2024-02-16T10:06:07;25.20;;;10.48;;
78169;SDS011;67412;49.892;14.490;2024-02-16T10:08:46;29.35;;;11.40;;
78169;SDS011;67412;49.892;14.490;2024-02-16T10:11:14;24.60;;;11.27;;
78169;SDS011;67412;49.892;14.490;2024-02-16T10:13:40;25.88;;;12.07;;
78169;SDS011;67412;49.892;14.490;2024-02-16T10:16:06;24.92;;;11.57;;
78169;SDS011;67412;49.892;14.490;2024-02-16T10:18:34;26.77;;;10.95;;
78169;SDS011;67412;49.892;14.490;2024-02-16T10:21:00;25.63;;;12.13;;
78169;SDS011;67412;49.892;14.490;2024-02-16T10:23:26;25.38;;;10.90;;
78169;SDS011;67412;49.892;14.490;2024-02-16T10:25:51;22.27;;;10.32;;
78169;SDS011;67412;49.892;14.490;2024-02-16T10:28:16;22.98;;;10.00;;
78169;SDS011;67412;49.892;14.490;2024-02-16T10:30:45;24.60;;;11.20;;
78169;SDS011;67412;49.892;14.490;2024-02-16T10:33:11;23.20;;;10.82;;
78169;SDS011;67412;49.892;14.490;2024-02-16T10:35:39;24.67;;;10.98;;
78169;SDS011;67412;49.892;14.490;2024-02-16T10:38:06;24.60;;;10.93;;
78169;SDS011;67412;49.892;14.490;2024-02-16T10:40:37;22.85;;;9.50;;
78169;SDS011;67412;49.892;14.490;2024-02-16T10:43:04;21.23;;;9.35;;
78169;SDS011;67412;49.892;14.490;2024-02-16T10:45:36;22.65;;;11.23;;
78169;SDS011;67412;49.892;14.490;2024-02-16T10:48:03;23.08;;;10.18;;
78169;SDS011;67412;49.892;14.490;2024-02-16T10:50:30;28.30;;;11.95;;
78169;SDS011;67412;49.892;14.490;2024-02-16T10:52:57;21.50;;;10.63;;
78169;SDS011;67412;49.892;14.490;2024-02-16T10:55:25;21.25;;;10.85;;
78169;SDS011;67412;49.892;14.490;2024-02-16T10:57:51;25.30;;;10.90;;
78169;SDS011;67412;49.892;14.490;2024-02-16T11:00:19;23.95;;;10.68;;
78169;SDS011;67412;49.892;14.490;2024-02-16T11:05:36;24.77;;;10.80;;
78169;SDS011;67412;49.892;14.490;2024-02-16T11:08:14;26.00;;;10.88;;
78169;SDS011;67412;49.892;14.490;2024-02-16T11:10:40;24.15;;;11.35;;
78169;SDS011;67412;49.892;14.490;2024-02-16T11:13:06;21.77;;;10.25;;
78169;SDS011;67412;49.892;14.490;2024-02-16T11:15:34;21.35;;;10.38;;
78169;SDS011;67412;49.892;14.490;2024-02-16T11:18:02;19.00;;;10.27;;
78169;SDS011;67412;49.892;14.490;2024-02-16T11:20:35;21.88;;;10.77;;
78169;SDS011;67412;49.892;14.490;2024-02-16T11:23:06;22.20;;;10.32;;
78169;SDS011;67412;49.892;14.490;2024-02-16T11:25:34;19.70;;;9.80;;
78169;SDS011;67412;49.892;14.490;2024-02-16T11:28:00;20.63;;;9.88;;
78169;SDS011;67412;49.892;14.490;2024-02-16T11:30:28;20.30;;;9.77;;
78169;SDS011;67412;49.892;14.490;2024-02-16T11:32:53;18.73;;;9.57;;
78169;SDS011;67412;49.892;14.490;2024-02-16T11:35:18;20.83;;;9.73;;
78169;SDS011;67412;49.892;14.490;2024-02-16T11:37:44;21.92;;;9.90;;
78169;SDS011;67412;49.892;14.490;2024-02-16T11:40:12;18.45;;;9.23;;
78169;SDS011;67412;49.892;14.490;2024-02-16T11:42:37;18.45;;;9.75;;
78169;SDS011;67412;49.892;14.490;2024-02-16T11:45:03;20.05;;;9.80;;
78169;SDS011;67412;49.892;14.490;2024-02-16T11:47:29;24.27;;;10.25;;
78169;SDS011;67412;49.892;14.490;2024-02-16T11:50:04;18.67;;;9.60;;
78169;SDS011;67412;49.892;14.490;2024-02-16T11:52:31;19.40;;;8.13;;
78169;SDS011;67412;49.892;14.490;2024-02-16T11:57:25;19.85;;;9.07;;
78169;SDS011;67412;49.892;14.490;2024-02-16T11:59:52;19.38;;;9.10;;
78169;SDS011;67412;49.892;14.490;2024-02-16T12:02:18;15.70;;;8.20;;
78169;SDS011;67412;49.892;14.490;2024-02-16T12:04:45;17.52;;;8.20;;
78169;SDS011;67412;49.892;14.490;2024-02-16T12:07:12;20.08;;;8.75;;
78169;SDS011;67412;49.892;14.490;2024-02-16T12:09:39;20.30;;;8.82;;
78169;SDS011;67412;49.892;14.490;2024-02-16T12:12:04;17.77;;;8.70;;
78169;SDS011;67412;49.892;14.490;2024-02-16T12:14:30;21.38;;;9.10;;
78169;SDS011;67412;49.892;14.490;2024-02-16T12:16:56;18.42;;;9.15;;
78169;SDS011;67412;49.892;14.490;2024-02-16T12:19:22;19.13;;;8.57;;
78169;SDS011;67412;49.892;14.490;2024-02-16T12:21:52;18.42;;;8.52;;
78169;SDS011;67412;49.892;14.490;2024-02-16T12:24:21;17.45;;;8.55;;
78169;SDS011;67412;49.892;14.490;2024-02-16T12:26:47;16.15;;;8.43;;
78169;SDS011;67412;49.892;14.490;2024-02-16T12:29:12;16.27;;;8.07;;
78169;SDS011;67412;49.892;14.490;2024-02-16T12:31:45;16.13;;;7.78;;
78169;SDS011;67412;49.892;14.490;2024-02-16T12:34:12;19.80;;;9.00;;
78169;SDS011;67412;49.892;14.490;2024-02-16T12:36:38;18.10;;;8.00;;
78169;SDS011;67412;49.892;14.490;2024-02-16T12:39:05;15.77;;;7.63;;
78169;SDS011;67412;49.892;14.490;2024-02-16T12:41:31;18.10;;;8.60;;
78169;SDS011;67412;49.892;14.490;2024-02-16T12:44:03;18.17;;;8.50;;
78169;SDS011;67412;49.892;14.490;2024-02-16T12:46:29;17.75;;;8.35;;
78169;SDS011;67412;49.892;14.490;2024-02-16T12:48:55;15.13;;;7.72;;
78169;SDS011;67412;49.892;14.490;2024-02-16T12:51:20;16.45;;;7.72;;
78169;SDS011;67412;49.892;14.490;2024-02-16T12:53:46;16.77;;;7.60;;
78169;SDS011;67412;49.892;14.490;2024-02-16T12:56:11;17.05;;;8.23;;
78169;SDS011;67412;49.892;14.490;2024-02-16T12:58:37;16.08;;;7.32;;
78169;SDS011;67412;49.892;14.490;2024-02-16T13:01:03;16.95;;;7.95;;
78169;SDS011;67412;49.892;14.490;2024-02-16T13:03:35;15.63;;;7.63;;
78169;SDS011;67412;49.892;14.490;2024-02-16T13:06:01;15.68;;;7.82;;
78169;SDS011;67412;49.892;14.490;2024-02-16T13:08:27;14.32;;;7.70;;
78169;SDS011;67412;49.892;14.490;2024-02-16T13:10:53;15.43;;;7.05;;
78169;SDS011;67412;49.892;14.490;2024-02-16T13:13:19;13.70;;;7.30;;
78169;SDS011;67412;49.892;14.490;2024-02-16T13:15:45;14.02;;;7.32;;
78169;SDS011;67412;49.892;14.490;2024-02-16T13:18:12;16.15;;;7.50;;
78169;SDS011;67412;49.892;14.490;2024-02-16T13:20:37;13.68;;;7.13;;
78169;SDS011;67412;49.892;14.490;2024-02-16T13:23:03;15.13;;;7.53;;
78169;SDS011;67412;49.892;14.490;2024-02-16T13:25:28;14.43;;;7.60;;
78169;SDS011;67412;49.892;14.490;2024-02-16T13:27:54;15.60;;;7.00;;
78169;SDS011;67412;49.892;14.490;2024-02-16T13:30:19;16.98;;;7.30;;
78169;SDS011;67412;49.892;14.490;2024-02-16T13:32:44;15.35;;;7.20;;
78169;SDS011;67412;49.892;14.490;2024-02-16T13:35:10;14.27;;;6.93;;
78169;SDS011;67412;49.892;14.490;2024-02-16T13:37:35;14.93;;;7.53;;
78169;SDS011;67412;49.892;14.490;2024-02-16T13:40:02;14.40;;;7.15;;
78169;SDS011;67412;49.892;14.490;2024-02-16T13:42:32;16.98;;;8.18;;
78169;SDS011;67412;49.892;14.490;2024-02-16T13:44:57;12.20;;;6.60;;
78169;SDS011;67412;49.892;14.490;2024-02-16T13:47:23;13.50;;;6.70;;
78169;SDS011;67412;49.892;14.490;2024-02-16T13:49:48;13.70;;;7.15;;
78169;SDS011;67412;49.892;14.490;2024-02-16T13:52:14;15.32;;;7.30;;
78169;SDS011;67412;49.892;14.490;2024-02-16T13:54:40;17.10;;;7.20;;
78169;SDS011;67412;49.892;14.490;2024-02-16T13:57:05;15.40;;;7.63;;
78169;SDS011;67412;49.892;14.490;2024-02-16T13:59:30;15.10;;;7.55;;
78169;SDS011;67412;49.892;14.490;2024-02-16T14:01:58;15.52;;;7.53;;
78169;SDS011;67412;49.892;14.490;2024-02-16T14:04:24;15.20;;;7.65;;
78169;SDS011;67412;49.892;14.490;2024-02-16T14:06:51;14.57;;;7.25;;
78169;SDS011;67412;49.892;14.490;2024-02-16T14:09:17;13.95;;;7.43;;
78169;SDS011;67412;49.892;14.490;2024-02-16T14:11:44;16.75;;;7.95;;
78169;SDS011;67412;49.892;14.490;2024-02-16T14:14:10;14.80;;;8.13;;
78169;SDS011;67412;49.892;14.490;2024-02-16T14:16:36;15.48;;;7.57;;
78169;SDS011;67412;49.892;14.490;2024-02-16T14:19:01;14.85;;;7.25;;
78169;SDS011;67412;49.892;14.490;2024-02-16T14:21:27;16.58;;;8.50;;
78169;SDS011;67412;49.892;14.490;2024-02-16T14:23:52;16.17;;;8.85;;